createdAt,value
2019-04-27T00:01:27.381Z,369.95
2019-04-27T00:06:27.350Z,392.42
2019-04-27T00:11:33.385Z,409.9
2019-04-27T00:16:33.916Z,372.88
2019-04-27T00:21:32.971Z,403.02
2019-04-27T00:26:33.540Z,360.67
2019-04-27T00:31:33.813Z,352.22
2019-04-27T00:36:35.286Z,380.86
2019-04-27T00:41:34.066Z,374.14
2019-04-27T00:46:33.151Z,398.48
2019-04-27T00:51:33.427Z,406.18
2019-04-27T00:56:34.032Z,406.68
2019-04-27T01:01:33.434Z,412.42
2019-04-27T01:06:33.729Z,394.73
2019-04-27T01:11:33.482Z,418.06
2019-04-27T01:16:32.856Z,463.33
2019-04-27T01:21:32.846Z,466.87
2019-04-27T01:26:32.871Z,461.1
2019-04-27T01:31:32.839Z,467.85
2019-04-27T01:36:32.801Z,474.79
2019-04-27T01:41:32.847Z,423.07
2019-04-27T01:46:32.794Z,443.45
2019-04-27T01:51:32.843Z,460.79
2019-04-27T01:56:32.784Z,390.6
2019-04-27T02:01:32.922Z,363.45
2019-04-27T02:06:32.808Z,366.67
2019-04-27T02:11:32.847Z,361.07
2019-04-27T02:16:37.001Z,369.95
2019-04-27T02:21:32.807Z,384.78
2019-04-27T02:26:32.796Z,330.72
2019-04-27T02:31:32.810Z,342.01
2019-04-27T02:36:32.775Z,370.79
2019-04-27T02:41:32.744Z,435.12
2019-04-27T02:46:32.791Z,383.24
2019-04-27T02:51:32.802Z,339.9
2019-04-27T02:56:32.758Z,254.57
2019-04-27T03:01:33.792Z,317.08
2019-04-27T03:06:32.745Z,290.6
2019-04-27T03:11:34.058Z,292.92
2019-04-27T03:16:32.723Z,248.82
2019-04-27T03:21:33.489Z,282.41
2019-04-27T03:26:33.507Z,289.58
2019-04-27T03:31:33.468Z,262.66
2019-04-27T03:36:34.840Z,294.22
2019-04-27T03:41:33.501Z,358.33
2019-04-27T03:46:33.449Z,345.95
2019-04-27T03:51:36.395Z,392.88
2019-04-27T03:56:34.931Z,312.29
2019-04-27T04:01:34.965Z,332.05
2019-04-27T04:06:34.929Z,296.33
2019-04-27T04:11:36.192Z,300.92
2019-04-27T04:16:34.900Z,353.35
2019-04-27T04:21:34.879Z,317.69
2019-04-27T04:26:34.938Z,288.07
2019-04-27T04:31:36.276Z,283.86
2019-04-27T04:36:34.889Z,265.19
2019-04-27T04:41:34.892Z,274.89
2019-04-27T04:46:34.879Z,280.73
2019-04-27T04:51:34.918Z,407.91
2019-04-27T04:56:34.875Z,374.57
2019-04-27T05:01:34.876Z,276.97
2019-04-27T05:06:34.897Z,352.59
2019-04-27T05:11:39.722Z,333.05
2019-04-27T05:16:39.248Z,449.68
2019-04-27T05:21:39.044Z,469.48
2019-04-27T05:26:39.945Z,367.9
2019-04-27T05:31:39.069Z,352.22
2019-04-27T05:36:48.318Z,319.53
2019-04-27T05:41:41.911Z,405.45
2019-04-27T05:46:39.917Z,339.21
2019-04-27T05:51:41.995Z,335.42
2019-04-27T05:56:39.685Z,324.23
2019-04-27T06:01:39.642Z,335.76
2019-04-27T06:06:44.435Z,365.05
2019-04-27T06:11:40.175Z,397.53
2019-04-27T06:16:39.651Z,424.67
2019-04-27T06:21:40.341Z,328.1
2019-04-27T06:26:40.153Z,415.73
2019-04-27T06:31:39.871Z,389.92
2019-04-27T06:36:39.666Z,435.4
2019-04-27T06:41:40.283Z,331.72
2019-04-27T06:46:40.689Z,401.09
2019-04-27T06:51:40.248Z,398.95
2019-04-27T06:56:39.590Z,443.45
2019-04-27T07:01:39.635Z,299.83
2019-04-27T07:06:55.986Z,245.31
2019-04-27T07:11:39.697Z,395.66
2019-04-27T07:16:39.612Z,451.5
2019-04-27T07:21:40.236Z,336.1
2019-04-27T07:26:39.588Z,340.96
2019-04-27T07:31:40.421Z,443.16
2019-04-27T07:36:39.614Z,528.58
2019-04-27T07:41:39.572Z,525.69
2019-04-27T07:46:39.533Z,438.53
2019-04-27T07:51:39.579Z,407.42
2019-04-27T07:56:39.586Z,527.75
2019-04-27T08:01:39.541Z,541.8
2019-04-27T08:06:39.561Z,631.42
2019-04-27T08:11:39.535Z,642.9
2019-04-27T08:16:39.537Z,673.17
2019-04-27T08:21:46.420Z,720.85
2019-04-27T08:26:39.606Z,629.05
2019-04-27T08:31:39.547Z,614.1
2019-04-27T08:36:39.524Z,557.07
2019-04-27T08:41:39.571Z,635.6
2019-04-27T08:46:39.497Z,543.11
2019-04-27T08:51:41.706Z,605.8
2019-04-27T08:56:39.709Z,597.71
2019-04-27T09:01:39.846Z,505.51
2019-04-27T09:06:40.788Z,562.2
2019-04-27T09:11:39.536Z,619.77
2019-04-27T09:16:39.465Z,460.16
2019-04-27T09:21:39.611Z,449.68
2019-04-27T09:26:39.496Z,505.89
2019-04-27T09:31:39.567Z,653.53
2019-04-27T09:36:39.462Z,447.89
2019-04-27T09:41:39.498Z,476.14
2019-04-27T09:46:39.485Z,544.87
2019-04-27T11:07:07.300Z,530.25
2019-04-27T11:12:07.069Z,530.67
2019-04-27T11:17:06.407Z,470.47
2019-04-27T11:22:07.627Z,476.14
2019-04-27T11:27:06.352Z,540.05
2019-04-27T11:32:06.324Z,518.79
2019-04-27T11:37:06.306Z,516.79
2019-04-27T11:42:06.316Z,548.43
2019-04-27T11:47:06.283Z,553.4
2019-04-27T11:52:07.727Z,523.64
2019-04-27T11:57:06.298Z,580.16
2019-04-27T12:02:06.300Z,529.83
2019-04-27T12:07:06.631Z,572.26
2019-04-27T12:12:19.510Z,498.39
2019-04-27T12:17:06.442Z,559.86
2019-04-27T12:22:06.328Z,642.28
2019-04-27T12:27:06.279Z,570.31
2019-04-27T12:32:06.291Z,652.89
2019-04-27T12:37:07.367Z,672.5
2019-04-27T12:42:06.316Z,605.8
2019-04-27T12:47:06.389Z,513.24
2019-04-27T12:52:06.248Z,510.12
2019-04-27T12:57:06.277Z,469.15
2019-04-27T13:02:06.378Z,514.81
2019-04-27T13:07:06.216Z,512.85
2019-04-27T13:12:06.311Z,603.08
2019-04-27T13:17:06.387Z,488.25
2019-04-27T13:22:06.300Z,525.69
2019-04-27T13:27:06.565Z,454.86
2019-04-27T13:32:06.204Z,385.22
2019-04-27T13:37:06.222Z,477.83
2019-04-27T13:42:06.713Z,394.5
2019-04-27T13:47:08.149Z,430.93
2019-04-27T13:52:06.247Z,459.84
2019-04-27T13:57:07.691Z,360.28
2019-04-27T14:02:06.210Z,397.53
2019-04-27T14:07:06.196Z,436.82
2019-04-27T14:12:06.176Z,431.49
2019-04-27T14:17:09.728Z,441.7
2019-04-27T14:22:06.230Z,294.48
2019-04-27T14:27:06.181Z,426.56
2019-04-27T14:32:06.203Z,389.24
2019-04-27T14:37:06.154Z,298.74
2019-04-27T14:42:08.492Z,412.92
2019-04-27T14:47:08.236Z,450.29
2019-04-27T14:52:06.173Z,386.55
2019-04-27T14:57:06.215Z,453.63
2019-04-27T15:02:06.151Z,389.92
2019-04-27T15:07:06.162Z,361.46
2019-04-27T15:12:06.118Z,335.42
2019-04-27T15:17:06.926Z,299.55
2019-04-27T15:22:06.112Z,279.07
2019-04-27T15:27:06.158Z,269.95
2019-04-27T15:36:10.295Z,310.82
2019-04-27T15:41:08.984Z,251.86
2019-04-27T15:46:08.393Z,210.21
2019-04-27T15:51:18.066Z,205.38
2019-04-27T15:56:08.996Z,209.15
2019-04-27T16:06:51.362Z,179.24
2019-04-27T16:12:07.071Z,193.03
2019-04-27T16:16:51.288Z,181.95
2019-04-27T16:21:54.555Z,211.43
2019-04-27T16:26:56.250Z,207.45
2019-04-27T16:27:49.135Z,191.8
2019-04-27T16:32:59.467Z,172.44
2019-04-27T16:38:00.241Z,177.16
2019-04-27T16:43:00.708Z,146.07
2019-04-27T16:48:02.172Z,186.81
2019-04-27T16:55:00.868Z,209.82
2019-04-27T16:58:00.096Z,214.86
2019-04-27T17:03:04.038Z,262.04
2019-04-27T17:07:59.721Z,238.24
2019-04-27T17:12:59.696Z,247.33
2019-04-27T17:17:59.683Z,241.02
2019-04-27T17:22:59.660Z,232.54
2019-04-27T17:28:05.151Z,262.24
2019-04-27T17:52:59.169Z,230.28
2019-04-27T17:58:05.018Z,215.7
2019-04-27T18:02:58.077Z,202.61
2019-04-27T18:07:58.074Z,174.04
2019-04-27T18:12:58.398Z,180.2
2019-04-27T18:17:58.537Z,187.22
2019-04-27T18:22:58.099Z,224.03
2019-04-27T18:27:58.364Z,198.84
2019-04-27T18:33:02.095Z,175.86
2019-04-27T18:38:01.776Z,167.12
2019-04-27T18:42:57.459Z,179.43
2019-04-27T18:47:59.449Z,176.6
2019-04-27T18:52:58.191Z,176.05
2019-04-27T18:58:02.174Z,167.62
2019-04-27T19:02:58.600Z,160.43
2019-04-27T19:07:57.401Z,155.38
2019-04-27T19:12:58.615Z,188.2
2019-04-27T19:17:58.306Z,203.11
2019-04-27T19:22:57.407Z,196.24
2019-04-27T19:49:51.547Z,157.13
2019-04-27T19:54:51.506Z,123.08
2019-04-27T19:59:51.619Z,161.35
2019-04-27T20:04:51.517Z,187.02
2019-04-27T20:09:51.516Z,172.61
2019-04-27T20:14:51.502Z,162.28
2019-04-27T20:19:51.748Z,161.04
2019-04-27T20:24:51.546Z,152.56
2019-04-27T20:29:51.492Z,148.13
2019-04-27T20:34:51.527Z,146.96
2019-04-27T20:39:51.690Z,144.07
2019-04-27T21:00:22.174Z,130.84
2019-04-27T21:05:22.248Z,126.6
2019-04-27T21:10:22.162Z,132.49
2019-04-27T21:15:22.155Z,131.55
2019-04-27T21:20:22.183Z,135.69
2019-04-27T21:25:22.160Z,138.03
2019-04-27T21:30:22.177Z,140.34
2019-04-27T21:35:22.147Z,142.48
2019-04-27T21:40:22.134Z,131.66
